sensor_id;sensor_type;location;lat;lon;timestamp;P1;durP1;ratioP1;P2;durP2;ratioP2
17818;SDS011;9034;50.284;19.310;2022-12-18T00:00:39;45.13;;;23.10;;
17818;SDS011;9034;50.284;19.310;2022-12-18T00:01:42;42.15;;;22.25;;
17818;SDS011;9034;50.284;19.310;2022-12-18T00:02:46;41.95;;;21.02;;
17818;SDS011;9034;50.284;19.310;2022-12-18T00:03:48;45.58;;;21.67;;
17818;SDS011;9034;50.284;19.310;2022-12-18T00:04:53;39.72;;;21.17;;
17818;SDS011;9034;50.284;19.310;2022-12-18T00:05:56;43.47;;;21.90;;
17818;SDS011;9034;50.284;19.310;2022-12-18T00:06:58;39.22;;;20.98;;
17818;SDS011;9034;50.284;19.310;2022-12-18T00:08:02;40.08;;;19.70;;
17818;SDS011;9034;50.284;19.310;2022-12-18T00:09:11;41.33;;;21.83;;
17818;SDS011;9034;50.284;19.310;2022-12-18T00:10:14;43.15;;;21.35;;
17818;SDS011;9034;50.284;19.310;2022-12-18T00:11:20;41.50;;;20.48;;
17818;SDS011;9034;50.284;19.310;2022-12-18T00:12:24;43.22;;;21.25;;
17818;SDS011;9034;50.284;19.310;2022-12-18T00:13:26;35.97;;;18.83;;
17818;SDS011;9034;50.284;19.310;2022-12-18T00:14:29;45.13;;;20.27;;
17818;SDS011;9034;50.284;19.310;2022-12-18T00:15:33;42.75;;;20.42;;
17818;SDS011;9034;50.284;19.310;2022-12-18T00:16:35;36.20;;;20.45;;
17818;SDS011;9034;50.284;19.310;2022-12-18T00:17:38;38.05;;;19.85;;
17818;SDS011;9034;50.284;19.310;2022-12-18T00:18:42;41.47;;;21.05;;
17818;SDS011;9034;50.284;19.310;2022-12-18T00:19:43;40.03;;;19.73;;
17818;SDS011;9034;50.284;19.310;2022-12-18T00:20:46;35.10;;;19.35;;
17818;SDS011;9034;50.284;19.310;2022-12-18T00:21:48;39.60;;;18.77;;
17818;SDS011;9034;50.284;19.310;2022-12-18T00:22:51;37.70;;;19.33;;
17818;SDS011;9034;50.284;19.310;2022-12-18T00:23:53;39.05;;;18.92;;
17818;SDS011;9034;50.284;19.310;2022-12-18T00:24:58;33.80;;;18.05;;
17818;SDS011;9034;50.284;19.310;2022-12-18T00:26:00;31.38;;;18.00;;
17818;SDS011;9034;50.284;19.310;2022-12-18T00:27:04;32.22;;;16.85;;
17818;SDS011;9034;50.284;19.310;2022-12-18T00:28:07;34.72;;;17.65;;
17818;SDS011;9034;50.284;19.310;2022-12-18T00:29:10;37.13;;;19.17;;
17818;SDS011;9034;50.284;19.310;2022-12-18T00:30:17;37.25;;;18.75;;
17818;SDS011;9034;50.284;19.310;2022-12-18T00:31:21;32.72;;;17.38;;
17818;SDS011;9034;50.284;19.310;2022-12-18T00:32:27;34.53;;;18.42;;
17818;SDS011;9034;50.284;19.310;2022-12-18T00:33:30;38.05;;;18.30;;
17818;SDS011;9034;50.284;19.310;2022-12-18T00:34:32;38.80;;;18.92;;
17818;SDS011;9034;50.284;19.310;2022-12-18T00:35:35;34.80;;;19.15;;
17818;SDS011;9034;50.284;19.310;2022-12-18T00:36:37;32.95;;;18.50;;
17818;SDS011;9034;50.284;19.310;2022-12-18T00:37:40;34.35;;;17.73;;
17818;SDS011;9034;50.284;19.310;2022-12-18T00:38:41;36.85;;;19.63;;
17818;SDS011;9034;50.284;19.310;2022-12-18T00:39:44;37.40;;;19.33;;
17818;SDS011;9034;50.284;19.310;2022-12-18T00:40:48;40.55;;;20.02;;
17818;SDS011;9034;50.284;19.310;2022-12-18T00:41:51;34.00;;;19.50;;
17818;SDS011;9034;50.284;19.310;2022-12-18T00:43:11;38.08;;;19.65;;
17818;SDS011;9034;50.284;19.310;2022-12-18T00:44:14;42.83;;;20.13;;
17818;SDS011;9034;50.284;19.310;2022-12-18T00:45:17;40.28;;;21.05;;
17818;SDS011;9034;50.284;19.310;2022-12-18T00:46:20;35.30;;;20.05;;
17818;SDS011;9034;50.284;19.310;2022-12-18T00:47:23;36.83;;;20.38;;
17818;SDS011;9034;50.284;19.310;2022-12-18T00:48:26;37.42;;;19.25;;
17818;SDS011;9034;50.284;19.310;2022-12-18T00:49:28;35.42;;;20.15;;
17818;SDS011;9034;50.284;19.310;2022-12-18T00:50:31;40.58;;;20.92;;
17818;SDS011;9034;50.284;19.310;2022-12-18T00:51:34;40.40;;;20.55;;
17818;SDS011;9034;50.284;19.310;2022-12-18T00:52:37;37.95;;;19.20;;
17818;SDS011;9034;50.284;19.310;2022-12-18T00:53:42;38.20;;;19.42;;
17818;SDS011;9034;50.284;19.310;2022-12-18T00:54:45;37.67;;;19.83;;
17818;SDS011;9034;50.284;19.310;2022-12-18T00:55:48;39.28;;;20.70;;
17818;SDS011;9034;50.284;19.310;2022-12-18T00:56:51;40.50;;;20.58;;
17818;SDS011;9034;50.284;19.310;2022-12-18T00:57:53;38.78;;;21.52;;
17818;SDS011;9034;50.284;19.310;2022-12-18T00:58:56;40.85;;;22.50;;
17818;SDS011;9034;50.284;19.310;2022-12-18T00:59:58;43.35;;;23.67;;
17818;SDS011;9034;50.284;19.310;2022-12-18T01:01:03;47.88;;;22.23;;
17818;SDS011;9034;50.284;19.310;2022-12-18T01:02:07;42.97;;;22.77;;
17818;SDS011;9034;50.284;19.310;2022-12-18T01:03:13;45.58;;;23.77;;
17818;SDS011;9034;50.284;19.310;2022-12-18T01:04:17;42.33;;;22.50;;
17818;SDS011;9034;50.284;19.310;2022-12-18T01:05:20;48.28;;;23.52;;
17818;SDS011;9034;50.284;19.310;2022-12-18T01:06:23;44.10;;;22.15;;
17818;SDS011;9034;50.284;19.310;2022-12-18T01:07:25;44.38;;;22.65;;
17818;SDS011;9034;50.284;19.310;2022-12-18T01:08:27;41.40;;;21.65;;
17818;SDS011;9034;50.284;19.310;2022-12-18T01:09:30;47.08;;;24.17;;
17818;SDS011;9034;50.284;19.310;2022-12-18T01:10:32;47.03;;;23.27;;
17818;SDS011;9034;50.284;19.310;2022-12-18T01:11:36;49.22;;;23.33;;
17818;SDS011;9034;50.284;19.310;2022-12-18T01:12:39;45.72;;;23.80;;
17818;SDS011;9034;50.284;19.310;2022-12-18T01:13:42;50.88;;;24.10;;
17818;SDS011;9034;50.284;19.310;2022-12-18T01:14:45;45.10;;;23.08;;
17818;SDS011;9034;50.284;19.310;2022-12-18T01:15:48;44.53;;;22.88;;
17818;SDS011;9034;50.284;19.310;2022-12-18T01:16:51;44.65;;;23.40;;
17818;SDS011;9034;50.284;19.310;2022-12-18T01:17:54;42.72;;;23.80;;
17818;SDS011;9034;50.284;19.310;2022-12-18T01:19:14;46.35;;;23.75;;
17818;SDS011;9034;50.284;19.310;2022-12-18T01:20:18;46.90;;;23.27;;
17818;SDS011;9034;50.284;19.310;2022-12-18T01:21:20;47.55;;;23.38;;
17818;SDS011;9034;50.284;19.310;2022-12-18T01:22:23;47.13;;;23.60;;
17818;SDS011;9034;50.284;19.310;2022-12-18T01:23:25;46.75;;;22.52;;
17818;SDS011;9034;50.284;19.310;2022-12-18T01:24:31;49.00;;;24.45;;
17818;SDS011;9034;50.284;19.310;2022-12-18T01:27:04;45.17;;;23.40;;
17818;SDS011;9034;50.284;19.310;2022-12-18T01:28:07;51.22;;;24.55;;
17818;SDS011;9034;50.284;19.310;2022-12-18T01:29:10;45.88;;;22.77;;
17818;SDS011;9034;50.284;19.310;2022-12-18T01:30:12;41.45;;;22.05;;
17818;SDS011;9034;50.284;19.310;2022-12-18T01:31:16;51.17;;;24.67;;
17818;SDS011;9034;50.284;19.310;2022-12-18T01:32:20;51.67;;;23.75;;
17818;SDS011;9034;50.284;19.310;2022-12-18T01:33:24;48.28;;;24.40;;
17818;SDS011;9034;50.284;19.310;2022-12-18T01:34:26;45.47;;;24.52;;
17818;SDS011;9034;50.284;19.310;2022-12-18T01:35:28;44.45;;;23.67;;
17818;SDS011;9034;50.284;19.310;2022-12-18T01:36:31;48.33;;;23.67;;
17818;SDS011;9034;50.284;19.310;2022-12-18T01:37:35;48.55;;;23.95;;
17818;SDS011;9034;50.284;19.310;2022-12-18T01:38:36;46.67;;;22.55;;
17818;SDS011;9034;50.284;19.310;2022-12-18T01:39:39;47.03;;;23.02;;
17818;SDS011;9034;50.284;19.310;2022-12-18T01:40:41;45.58;;;22.73;;
17818;SDS011;9034;50.284;19.310;2022-12-18T01:41:44;48.30;;;24.10;;
17818;SDS011;9034;50.284;19.310;2022-12-18T01:43:08;45.80;;;23.13;;
17818;SDS011;9034;50.284;19.310;2022-12-18T01:45:52;45.90;;;22.67;;
17818;SDS011;9034;50.284;19.310;2022-12-18T01:46:55;47.58;;;23.58;;
17818;SDS011;9034;50.284;19.310;2022-12-18T01:47:57;47.58;;;22.73;;
17818;SDS011;9034;50.284;19.310;2022-12-18T01:49:02;43.88;;;22.65;;
17818;SDS011;9034;50.284;19.310;2022-12-18T01:50:06;47.75;;;23.90;;
17818;SDS011;9034;50.284;19.310;2022-12-18T01:51:11;47.75;;;22.00;;
17818;SDS011;9034;50.284;19.310;2022-12-18T01:52:13;46.17;;;23.30;;
17818;SDS011;9034;50.284;19.310;2022-12-18T01:53:17;46.60;;;23.13;;
17818;SDS011;9034;50.284;19.310;2022-12-18T01:54:21;48.17;;;23.20;;
17818;SDS011;9034;50.284;19.310;2022-12-18T01:55:25;43.40;;;23.17;;
17818;SDS011;9034;50.284;19.310;2022-12-18T01:56:28;44.20;;;21.98;;
17818;SDS011;9034;50.284;19.310;2022-12-18T01:57:31;48.20;;;23.27;;
17818;SDS011;9034;50.284;19.310;2022-12-18T01:58:37;50.22;;;22.95;;
17818;SDS011;9034;50.284;19.310;2022-12-18T01:59:45;50.90;;;23.63;;
17818;SDS011;9034;50.284;19.310;2022-12-18T02:00:49;43.38;;;22.50;;
17818;SDS011;9034;50.284;19.310;2022-12-18T02:01:53;47.22;;;22.00;;
17818;SDS011;9034;50.284;19.310;2022-12-18T02:02:56;41.67;;;21.23;;
17818;SDS011;9034;50.284;19.310;2022-12-18T02:04:13;48.65;;;24.13;;
17818;SDS011;9034;50.284;19.310;2022-12-18T02:05:22;43.28;;;22.85;;
17818;SDS011;9034;50.284;19.310;2022-12-18T02:06:32;44.05;;;22.35;;
17818;SDS011;9034;50.284;19.310;2022-12-18T02:07:37;43.17;;;21.90;;
17818;SDS011;9034;50.284;19.310;2022-12-18T02:08:52;45.03;;;22.40;;
17818;SDS011;9034;50.284;19.310;2022-12-18T02:10:00;46.90;;;22.50;;
17818;SDS011;9034;50.284;19.310;2022-12-18T02:11:09;44.53;;;23.50;;
17818;SDS011;9034;50.284;19.310;2022-12-18T02:12:16;44.35;;;21.88;;
17818;SDS011;9034;50.284;19.310;2022-12-18T02:13:23;47.92;;;22.20;;
17818;SDS011;9034;50.284;19.310;2022-12-18T02:14:31;46.20;;;22.08;;
17818;SDS011;9034;50.284;19.310;2022-12-18T02:15:41;44.17;;;21.77;;
17818;SDS011;9034;50.284;19.310;2022-12-18T02:16:46;47.42;;;22.60;;
17818;SDS011;9034;50.284;19.310;2022-12-18T02:17:56;42.55;;;21.15;;
17818;SDS011;9034;50.284;19.310;2022-12-18T02:19:01;41.22;;;21.08;;
17818;SDS011;9034;50.284;19.310;2022-12-18T02:20:12;50.40;;;22.77;;
17818;SDS011;9034;50.284;19.310;2022-12-18T02:21:19;48.55;;;23.50;;
17818;SDS011;9034;50.284;19.310;2022-12-18T02:22:29;45.45;;;22.27;;
17818;SDS011;9034;50.284;19.310;2022-12-18T02:23:45;46.65;;;22.17;;
17818;SDS011;9034;50.284;19.310;2022-12-18T02:24:53;44.75;;;22.08;;
17818;SDS011;9034;50.284;19.310;2022-12-18T02:26:06;40.28;;;22.13;;
17818;SDS011;9034;50.284;19.310;2022-12-18T02:27:12;43.55;;;21.70;;
17818;SDS011;9034;50.284;19.310;2022-12-18T02:28:15;49.67;;;23.65;;
17818;SDS011;9034;50.284;19.310;2022-12-18T02:29:20;45.97;;;22.67;;
17818;SDS011;9034;50.284;19.310;2022-12-18T02:30:24;45.08;;;23.02;;
17818;SDS011;9034;50.284;19.310;2022-12-18T02:31:29;44.08;;;23.00;;
17818;SDS011;9034;50.284;19.310;2022-12-18T02:32:34;46.97;;;23.25;;
17818;SDS011;9034;50.284;19.310;2022-12-18T02:33:40;47.08;;;22.67;;
17818;SDS011;9034;50.284;19.310;2022-12-18T02:34:43;48.50;;;23.33;;
17818;SDS011;9034;50.284;19.310;2022-12-18T02:35:49;47.05;;;22.05;;
17818;SDS011;9034;50.284;19.310;2022-12-18T02:36:54;45.20;;;21.23;;
17818;SDS011;9034;50.284;19.310;2022-12-18T02:37:57;43.88;;;23.02;;
17818;SDS011;9034;50.284;19.310;2022-12-18T02:39:03;52.72;;;24.10;;
17818;SDS011;9034;50.284;19.310;2022-12-18T02:40:10;47.33;;;22.38;;
17818;SDS011;9034;50.284;19.310;2022-12-18T02:41:14;48.55;;;24.60;;
17818;SDS011;9034;50.284;19.310;2022-12-18T02:42:19;50.30;;;23.83;;
17818;SDS011;9034;50.284;19.310;2022-12-18T02:43:22;54.75;;;23.25;;
17818;SDS011;9034;50.284;19.310;2022-12-18T02:44:25;49.25;;;24.00;;
17818;SDS011;9034;50.284;19.310;2022-12-18T02:45:29;54.88;;;25.17;;
17818;SDS011;9034;50.284;19.310;2022-12-18T02:46:34;46.90;;;22.13;;
17818;SDS011;9034;50.284;19.310;2022-12-18T02:47:47;45.78;;;22.67;;
17818;SDS011;9034;50.284;19.310;2022-12-18T02:48:51;47.17;;;24.00;;
17818;SDS011;9034;50.284;19.310;2022-12-18T02:49:58;49.17;;;23.55;;
17818;SDS011;9034;50.284;19.310;2022-12-18T02:51:09;51.88;;;23.40;;
17818;SDS011;9034;50.284;19.310;2022-12-18T02:52:17;54.83;;;24.40;;
17818;SDS011;9034;50.284;19.310;2022-12-18T02:53:26;50.20;;;24.98;;
17818;SDS011;9034;50.284;19.310;2022-12-18T02:54:36;45.20;;;23.13;;
17818;SDS011;9034;50.284;19.310;2022-12-18T02:55:48;53.63;;;24.63;;
17818;SDS011;9034;50.284;19.310;2022-12-18T02:57:00;45.35;;;21.50;;
17818;SDS011;9034;50.284;19.310;2022-12-18T02:58:08;51.97;;;23.75;;
17818;SDS011;9034;50.284;19.310;2022-12-18T02:59:16;53.53;;;24.85;;
17818;SDS011;9034;50.284;19.310;2022-12-18T03:00:29;50.80;;;23.65;;
17818;SDS011;9034;50.284;19.310;2022-12-18T03:01:33;50.20;;;23.00;;
17818;SDS011;9034;50.284;19.310;2022-12-18T03:02:39;47.10;;;22.20;;
17818;SDS011;9034;50.284;19.310;2022-12-18T03:03:46;45.20;;;22.85;;
17818;SDS011;9034;50.284;19.310;2022-12-18T03:04:55;51.33;;;23.55;;
17818;SDS011;9034;50.284;19.310;2022-12-18T03:06:04;51.88;;;24.23;;
17818;SDS011;9034;50.284;19.310;2022-12-18T03:07:09;48.75;;;23.92;;
17818;SDS011;9034;50.284;19.310;2022-12-18T03:08:14;48.40;;;23.88;;
17818;SDS011;9034;50.284;19.310;2022-12-18T03:09:22;48.88;;;24.13;;
17818;SDS011;9034;50.284;19.310;2022-12-18T03:10:31;49.05;;;23.98;;
17818;SDS011;9034;50.284;19.310;2022-12-18T03:11:37;50.05;;;24.13;;
17818;SDS011;9034;50.284;19.310;2022-12-18T03:13:02;46.40;;;22.77;;
17818;SDS011;9034;50.284;19.310;2022-12-18T03:14:06;42.92;;;22.50;;
17818;SDS011;9034;50.284;19.310;2022-12-18T03:15:10;51.30;;;23.08;;
17818;SDS011;9034;50.284;19.310;2022-12-18T03:16:20;50.10;;;23.55;;
17818;SDS011;9034;50.284;19.310;2022-12-18T03:17:25;49.70;;;22.40;;
17818;SDS011;9034;50.284;19.310;2022-12-18T03:18:30;46.88;;;23.83;;
17818;SDS011;9034;50.284;19.310;2022-12-18T03:19:35;42.17;;;21.80;;
17818;SDS011;9034;50.284;19.310;2022-12-18T03:20:40;47.28;;;23.15;;
17818;SDS011;9034;50.284;19.310;2022-12-18T03:21:47;46.75;;;21.80;;
17818;SDS011;9034;50.284;19.310;2022-12-18T03:23:11;46.17;;;22.67;;
17818;SDS011;9034;50.284;19.310;2022-12-18T03:24:18;44.90;;;21.65;;
17818;SDS011;9034;50.284;19.310;2022-12-18T03:25:22;51.95;;;24.80;;
17818;SDS011;9034;50.284;19.310;2022-12-18T03:26:28;49.03;;;24.83;;
17818;SDS011;9034;50.284;19.310;2022-12-18T03:27:35;49.45;;;22.88;;
17818;SDS011;9034;50.284;19.310;2022-12-18T03:28:43;48.35;;;23.35;;
17818;SDS011;9034;50.284;19.310;2022-12-18T03:29:48;46.58;;;23.38;;
17818;SDS011;9034;50.284;19.310;2022-12-18T03:30:58;50.63;;;22.80;;
17818;SDS011;9034;50.284;19.310;2022-12-18T03:32:05;46.70;;;23.73;;
17818;SDS011;9034;50.284;19.310;2022-12-18T03:33:12;50.80;;;23.30;;
17818;SDS011;9034;50.284;19.310;2022-12-18T03:34:21;50.53;;;22.48;;
17818;SDS011;9034;50.284;19.310;2022-12-18T03:35:26;45.78;;;22.67;;
17818;SDS011;9034;50.284;19.310;2022-12-18T03:36:32;47.65;;;23.75;;
17818;SDS011;9034;50.284;19.310;2022-12-18T03:37:35;53.60;;;24.70;;
17818;SDS011;9034;50.284;19.310;2022-12-18T03:38:39;53.67;;;24.40;;
17818;SDS011;9034;50.284;19.310;2022-12-18T03:39:42;47.17;;;23.58;;
17818;SDS011;9034;50.284;19.310;2022-12-18T03:40:49;47.35;;;21.73;;
17818;SDS011;9034;50.284;19.310;2022-12-18T03:41:55;54.03;;;23.77;;
17818;SDS011;9034;50.284;19.310;2022-12-18T03:43:16;44.67;;;22.52;;
17818;SDS011;9034;50.284;19.310;2022-12-18T03:44:26;51.53;;;24.00;;
17818;SDS011;9034;50.284;19.310;2022-12-18T03:45:32;52.53;;;22.58;;
17818;SDS011;9034;50.284;19.310;2022-12-18T03:46:41;46.30;;;24.00;;
17818;SDS011;9034;50.284;19.310;2022-12-18T03:47:49;50.03;;;23.73;;
17818;SDS011;9034;50.284;19.310;2022-12-18T03:49:01;50.20;;;22.98;;
17818;SDS011;9034;50.284;19.310;2022-12-18T03:50:07;51.58;;;23.67;;
17818;SDS011;9034;50.284;19.310;2022-12-18T03:51:16;51.28;;;24.00;;
17818;SDS011;9034;50.284;19.310;2022-12-18T03:52:23;48.63;;;22.70;;
17818;SDS011;9034;50.284;19.310;2022-12-18T03:53:30;46.30;;;23.88;;
17818;SDS011;9034;50.284;19.310;2022-12-18T03:54:36;51.30;;;24.35;;
17818;SDS011;9034;50.284;19.310;2022-12-18T03:55:46;49.42;;;22.70;;
17818;SDS011;9034;50.284;19.310;2022-12-18T03:56:52;51.65;;;24.00;;
17818;SDS011;9034;50.284;19.310;2022-12-18T03:57:59;47.65;;;24.38;;
17818;SDS011;9034;50.284;19.310;2022-12-18T03:59:12;51.15;;;23.88;;
17818;SDS011;9034;50.284;19.310;2022-12-18T04:00:18;49.53;;;24.30;;
17818;SDS011;9034;50.284;19.310;2022-12-18T04:01:30;47.33;;;23.15;;
17818;SDS011;9034;50.284;19.310;2022-12-18T04:02:36;53.72;;;22.90;;
17818;SDS011;9034;50.284;19.310;2022-12-18T04:03:40;50.65;;;23.15;;
17818;SDS011;9034;50.284;19.310;2022-12-18T04:04:45;46.95;;;21.83;;
17818;SDS011;9034;50.284;19.310;2022-12-18T04:05:49;48.53;;;24.33;;
17818;SDS011;9034;50.284;19.310;2022-12-18T04:06:55;49.15;;;23.27;;
17818;SDS011;9034;50.284;19.310;2022-12-18T04:07:58;51.15;;;23.73;;
17818;SDS011;9034;50.284;19.310;2022-12-18T04:09:01;49.78;;;24.08;;
17818;SDS011;9034;50.284;19.310;2022-12-18T04:10:07;45.67;;;23.65;;
17818;SDS011;9034;50.284;19.310;2022-12-18T04:11:12;44.42;;;22.48;;
17818;SDS011;9034;50.284;19.310;2022-12-18T04:12:14;53.22;;;25.48;;
17818;SDS011;9034;50.284;19.310;2022-12-18T04:13:22;50.22;;;23.95;;
17818;SDS011;9034;50.284;19.310;2022-12-18T04:14:24;50.38;;;23.52;;
17818;SDS011;9034;50.284;19.310;2022-12-18T04:15:31;51.10;;;24.27;;
17818;SDS011;9034;50.284;19.310;2022-12-18T04:16:36;52.28;;;25.48;;
17818;SDS011;9034;50.284;19.310;2022-12-18T04:17:45;49.33;;;23.65;;
17818;SDS011;9034;50.284;19.310;2022-12-18T04:18:52;59.97;;;25.98;;
17818;SDS011;9034;50.284;19.310;2022-12-18T04:19:57;56.97;;;26.13;;
17818;SDS011;9034;50.284;19.310;2022-12-18T04:20:59;55.60;;;24.95;;
17818;SDS011;9034;50.284;19.310;2022-12-18T04:22:03;53.63;;;25.23;;
17818;SDS011;9034;50.284;19.310;2022-12-18T04:23:11;55.10;;;26.15;;
17818;SDS011;9034;50.284;19.310;2022-12-18T04:24:14;52.90;;;26.13;;
17818;SDS011;9034;50.284;19.310;2022-12-18T04:25:26;56.67;;;25.70;;
17818;SDS011;9034;50.284;19.310;2022-12-18T04:26:39;53.20;;;26.73;;
17818;SDS011;9034;50.284;19.310;2022-12-18T04:28:04;53.33;;;25.50;;
17818;SDS011;9034;50.284;19.310;2022-12-18T04:29:07;59.30;;;26.20;;
17818;SDS011;9034;50.284;19.310;2022-12-18T04:30:11;54.47;;;25.13;;
17818;SDS011;9034;50.284;19.310;2022-12-18T04:31:14;48.30;;;24.15;;
17818;SDS011;9034;50.284;19.310;2022-12-18T04:32:17;55.75;;;24.83;;
17818;SDS011;9034;50.284;19.310;2022-12-18T04:33:21;57.47;;;26.25;;
17818;SDS011;9034;50.284;19.310;2022-12-18T04:34:24;60.95;;;26.20;;
17818;SDS011;9034;50.284;19.310;2022-12-18T04:35:28;59.58;;;26.33;;
17818;SDS011;9034;50.284;19.310;2022-12-18T04:36:31;51.88;;;26.02;;
17818;SDS011;9034;50.284;19.310;2022-12-18T04:37:33;55.22;;;26.80;;
17818;SDS011;9034;50.284;19.310;2022-12-18T04:38:35;54.45;;;25.90;;
17818;SDS011;9034;50.284;19.310;2022-12-18T04:39:42;56.55;;;24.55;;
17818;SDS011;9034;50.284;19.310;2022-12-18T04:40:53;65.13;;;25.70;;
17818;SDS011;9034;50.284;19.310;2022-12-18T04:42:00;57.85;;;27.67;;
17818;SDS011;9034;50.284;19.310;2022-12-18T04:43:02;61.25;;;27.50;;
17818;SDS011;9034;50.284;19.310;2022-12-18T04:44:05;55.17;;;27.73;;
17818;SDS011;9034;50.284;19.310;2022-12-18T04:45:07;56.90;;;26.95;;
17818;SDS011;9034;50.284;19.310;2022-12-18T04:46:11;54.58;;;25.58;;
17818;SDS011;9034;50.284;19.310;2022-12-18T04:47:14;53.55;;;26.30;;
17818;SDS011;9034;50.284;19.310;2022-12-18T04:48:17;56.60;;;26.33;;
17818;SDS011;9034;50.284;19.310;2022-12-18T04:49:19;55.47;;;25.13;;
17818;SDS011;9034;50.284;19.310;2022-12-18T04:50:22;51.97;;;25.20;;
17818;SDS011;9034;50.284;19.310;2022-12-18T04:51:24;55.60;;;25.50;;
17818;SDS011;9034;50.284;19.310;2022-12-18T04:52:27;55.53;;;25.48;;
17818;SDS011;9034;50.284;19.310;2022-12-18T04:53:30;61.40;;;27.17;;
17818;SDS011;9034;50.284;19.310;2022-12-18T04:54:33;54.58;;;26.05;;
17818;SDS011;9034;50.284;19.310;2022-12-18T04:55:35;51.58;;;26.00;;
17818;SDS011;9034;50.284;19.310;2022-12-18T04:56:37;52.70;;;25.85;;
17818;SDS011;9034;50.284;19.310;2022-12-18T04:57:39;55.20;;;24.45;;
17818;SDS011;9034;50.284;19.310;2022-12-18T04:58:43;58.45;;;25.52;;
17818;SDS011;9034;50.284;19.310;2022-12-18T04:59:45;54.42;;;25.65;;
17818;SDS011;9034;50.284;19.310;2022-12-18T05:00:48;50.05;;;24.42;;
17818;SDS011;9034;50.284;19.310;2022-12-18T05:01:50;55.95;;;25.38;;
17818;SDS011;9034;50.284;19.310;2022-12-18T05:02:55;47.38;;;23.63;;
17818;SDS011;9034;50.284;19.310;2022-12-18T05:03:57;50.92;;;24.73;;
17818;SDS011;9034;50.284;19.310;2022-12-18T05:05:00;51.20;;;25.83;;
17818;SDS011;9034;50.284;19.310;2022-12-18T05:06:02;55.83;;;25.20;;
17818;SDS011;9034;50.284;19.310;2022-12-18T05:07:06;46.38;;;23.50;;
17818;SDS011;9034;50.284;19.310;2022-12-18T05:08:08;49.22;;;24.25;;
17818;SDS011;9034;50.284;19.310;2022-12-18T05:09:11;49.17;;;24.70;;
17818;SDS011;9034;50.284;19.310;2022-12-18T05:10:13;52.63;;;26.67;;
17818;SDS011;9034;50.284;19.310;2022-12-18T05:11:16;55.00;;;25.88;;
17818;SDS011;9034;50.284;19.310;2022-12-18T05:12:18;53.55;;;26.52;;
17818;SDS011;9034;50.284;19.310;2022-12-18T05:13:21;49.53;;;25.60;;
17818;SDS011;9034;50.284;19.310;2022-12-18T05:14:23;59.55;;;27.98;;
17818;SDS011;9034;50.284;19.310;2022-12-18T05:15:26;60.60;;;26.15;;
17818;SDS011;9034;50.284;19.310;2022-12-18T05:16:30;54.92;;;25.67;;
17818;SDS011;9034;50.284;19.310;2022-12-18T05:17:33;56.67;;;26.77;;
17818;SDS011;9034;50.284;19.310;2022-12-18T05:18:36;57.67;;;26.85;;
17818;SDS011;9034;50.284;19.310;2022-12-18T05:19:39;50.63;;;25.52;;
17818;SDS011;9034;50.284;19.310;2022-12-18T05:20:41;60.10;;;26.73;;
17818;SDS011;9034;50.284;19.310;2022-12-18T05:21:44;51.08;;;26.30;;
17818;SDS011;9034;50.284;19.310;2022-12-18T05:22:46;59.03;;;25.83;;
17818;SDS011;9034;50.284;19.310;2022-12-18T05:23:49;56.65;;;27.02;;
17818;SDS011;9034;50.284;19.310;2022-12-18T05:24:52;58.08;;;26.60;;
17818;SDS011;9034;50.284;19.310;2022-12-18T05:25:54;53.83;;;25.67;;
17818;SDS011;9034;50.284;19.310;2022-12-18T05:26:58;53.85;;;24.73;;
17818;SDS011;9034;50.284;19.310;2022-12-18T05:28:00;57.42;;;25.92;;
17818;SDS011;9034;50.284;19.310;2022-12-18T05:29:21;44.97;;;22.83;;
17818;SDS011;9034;50.284;19.310;2022-12-18T05:30:23;50.58;;;25.38;;
17818;SDS011;9034;50.284;19.310;2022-12-18T05:31:26;52.40;;;26.48;;
17818;SDS011;9034;50.284;19.310;2022-12-18T05:32:28;55.22;;;24.73;;
17818;SDS011;9034;50.284;19.310;2022-12-18T05:33:31;56.35;;;24.85;;
17818;SDS011;9034;50.284;19.310;2022-12-18T05:34:36;52.28;;;27.60;;
17818;SDS011;9034;50.284;19.310;2022-12-18T05:35:38;57.30;;;26.20;;
17818;SDS011;9034;50.284;19.310;2022-12-18T05:36:40;52.78;;;25.40;;
17818;SDS011;9034;50.284;19.310;2022-12-18T05:37:44;54.03;;;27.73;;
17818;SDS011;9034;50.284;19.310;2022-12-18T05:38:46;60.50;;;26.73;;
17818;SDS011;9034;50.284;19.310;2022-12-18T05:39:49;57.22;;;26.13;;
17818;SDS011;9034;50.284;19.310;2022-12-18T05:40:51;51.10;;;26.17;;
17818;SDS011;9034;50.284;19.310;2022-12-18T05:41:54;52.20;;;24.95;;
17818;SDS011;9034;50.284;19.310;2022-12-18T05:42:56;54.92;;;25.65;;
17818;SDS011;9034;50.284;19.310;2022-12-18T05:43:59;45.10;;;24.52;;
17818;SDS011;9034;50.284;19.310;2022-12-18T05:45:01;53.75;;;27.05;;
17818;SDS011;9034;50.284;19.310;2022-12-18T05:46:04;54.42;;;25.13;;
17818;SDS011;9034;50.284;19.310;2022-12-18T05:47:07;57.60;;;25.92;;
17818;SDS011;9034;50.284;19.310;2022-12-18T05:48:10;51.78;;;25.38;;
17818;SDS011;9034;50.284;19.310;2022-12-18T05:49:15;52.10;;;25.75;;
17818;SDS011;9034;50.284;19.310;2022-12-18T05:50:19;51.28;;;25.23;;
17818;SDS011;9034;50.284;19.310;2022-12-18T05:51:21;59.75;;;26.77;;
17818;SDS011;9034;50.284;19.310;2022-12-18T05:52:24;54.45;;;26.92;;
17818;SDS011;9034;50.284;19.310;2022-12-18T05:53:26;62.05;;;27.67;;
17818;SDS011;9034;50.284;19.310;2022-12-18T05:54:29;61.75;;;28.60;;
17818;SDS011;9034;50.284;19.310;2022-12-18T05:55:32;56.92;;;27.70;;
17818;SDS011;9034;50.284;19.310;2022-12-18T05:56:35;61.05;;;27.95;;
17818;SDS011;9034;50.284;19.310;2022-12-18T05:57:37;62.33;;;26.67;;
17818;SDS011;9034;50.284;19.310;2022-12-18T05:58:40;60.85;;;27.05;;
17818;SDS011;9034;50.284;19.310;2022-12-18T05:59:42;60.72;;;30.27;;
17818;SDS011;9034;50.284;19.310;2022-12-18T06:00:45;61.83;;;30.08;;
17818;SDS011;9034;50.284;19.310;2022-12-18T06:01:47;55.03;;;28.35;;
17818;SDS011;9034;50.284;19.310;2022-12-18T06:02:50;61.47;;;25.95;;
17818;SDS011;9034;50.284;19.310;2022-12-18T06:03:52;62.90;;;28.52;;
17818;SDS011;9034;50.284;19.310;2022-12-18T06:04:56;57.13;;;29.00;;
17818;SDS011;9034;50.284;19.310;2022-12-18T06:05:59;59.03;;;29.02;;
17818;SDS011;9034;50.284;19.310;2022-12-18T06:07:03;55.65;;;27.42;;
17818;SDS011;9034;50.284;19.310;2022-12-18T06:08:05;58.33;;;26.80;;
17818;SDS011;9034;50.284;19.310;2022-12-18T06:09:08;56.20;;;27.70;;
17818;SDS011;9034;50.284;19.310;2022-12-18T06:10:10;58.30;;;28.23;;
17818;SDS011;9034;50.284;19.310;2022-12-18T06:11:16;56.35;;;28.25;;
17818;SDS011;9034;50.284;19.310;2022-12-18T06:12:18;59.45;;;30.63;;
17818;SDS011;9034;50.284;19.310;2022-12-18T06:13:21;59.95;;;29.13;;
17818;SDS011;9034;50.284;19.310;2022-12-18T06:14:23;61.53;;;29.25;;
17818;SDS011;9034;50.284;19.310;2022-12-18T06:15:26;55.30;;;28.40;;
17818;SDS011;9034;50.284;19.310;2022-12-18T06:16:27;62.72;;;29.35;;
17818;SDS011;9034;50.284;19.310;2022-12-18T06:17:32;62.53;;;29.20;;
17818;SDS011;9034;50.284;19.310;2022-12-18T06:18:34;60.20;;;29.95;;
17818;SDS011;9034;50.284;19.310;2022-12-18T06:19:39;63.75;;;29.05;;
17818;SDS011;9034;50.284;19.310;2022-12-18T06:20:42;57.25;;;27.42;;
17818;SDS011;9034;50.284;19.310;2022-12-18T06:21:46;65.45;;;28.75;;
17818;SDS011;9034;50.284;19.310;2022-12-18T06:22:48;60.65;;;28.15;;